Time;durP1;ratioP1;P1;durP2;ratioP2;P2;SDS_P1;SDS_P2;PMS_P1;PMS_P2;Temp;Humidity;BMP_temperature;BMP_pressure;BME280_temperature;BME280_humidity;BME280_pressure;Samples;Min_cycle;Max_cycle;Signal;HPM_P1;HPM_P2
2022/03/27 00:00:47;;;;;;;15.07;8.70;;;14.20;30.20;;;14.66;26.81;99793.44;4960478;28;123548;-85
2022/03/27 00:07:16;;;;;;;12.13;7.13;;;14.10;30.40;;;14.56;27.21;99787.00;4962393;28;114994;-74
2022/03/27 00:10:22;;;;;;;12.27;8.43;;;14.00;30.50;;;14.50;27.22;99788.22;4958346;28;125003;-79
2022/03/27 00:16:31;;;;;;;11.70;7.00;;;14.00;30.80;;;14.42;27.39;99786.19;4960764;28;116227;-77
2022/03/27 00:22:40;;;;;;;11.57;7.00;;;13.90;31.20;;;14.39;27.72;99792.38;4961474;28;125152;-79
2022/03/27 00:28:49;;;;;;;11.13;7.53;;;13.80;31.40;;;14.35;27.92;99788.59;4961402;28;115202;-80
2022/03/27 00:31:18;;;;;;;9.83;6.40;;;13.80;31.60;;;14.34;27.91;99784.16;4960974;28;114831;-90
2022/03/27 00:37:27;;;;;;;16.00;7.20;;;13.80;31.70;;;14.28;27.86;99786.22;4961367;28;124782;-82
2022/03/27 00:47:17;;;;;;;10.07;6.40;;;13.70;31.80;;;14.15;28.15;99776.78;4960336;28;125081;-89
2022/03/27 00:49:46;;;;;;;11.13;7.30;;;13.60;31.90;;;14.13;28.23;99781.84;4960053;28;124451;-83
2022/03/27 00:52:50;;;;;;;12.33;7.50;;;13.60;32.00;;;14.09;28.29;99782.78;4957437;28;114329;-88
2022/03/27 00:56:14;;;;;;;10.70;7.00;;;13.60;32.00;;;14.03;28.20;99775.69;4953994;28;114225;-90
2022/03/27 00:58:43;;;;;;;12.83;6.70;;;13.50;32.10;;;13.98;28.47;99776.63;4964210;28;124847;-89
2022/03/27 01:01:16;;;;;;;9.20;6.03;;;13.40;32.10;;;13.97;28.29;99779.69;4960041;28;123030;-90
2022/03/27 01:03:43;;;;;;;8.47;6.70;;;13.40;32.40;;;13.95;28.62;99782.00;4975878;28;114278;-89
2022/03/27 01:06:26;;;;;;;15.10;8.33;;;13.40;32.30;;;13.92;28.55;99775.91;4977876;28;113998;-89
2022/03/27 01:09:36;;;;;;;13.13;7.40;;;13.40;32.40;;;13.89;28.74;99778.50;4961815;28;127020;-89
2022/03/27 01:12:14;;;;;;;11.80;7.50;;;13.40;32.60;;;13.86;28.60;99777.16;4960972;28;125797;-90
2022/03/27 01:14:41;;;;;;;10.57;7.30;;;13.30;32.60;;;13.82;28.75;99789.19;4958473;28;115342;-89
2022/03/27 01:17:28;;;;;;;12.97;7.67;;;13.30;32.70;;;13.79;28.90;99773.16;4973808;28;114450;-88
2022/03/27 01:20:33;;;;;;;16.07;6.90;;;13.20;32.70;;;13.72;29.12;99778.28;4955073;28;124794;-86
2022/03/27 01:23:01;;;;;;;15.30;8.47;;;13.20;32.90;;;13.67;29.12;99781.97;4959099;28;123705;-86
2022/03/27 01:25:47;;;;;;;12.03;7.67;;;13.20;33.00;;;13.65;29.43;99778.72;4955193;28;113840;-89
2022/03/27 01:28:15;;;;;;;12.20;7.03;;;13.10;33.00;;;13.61;29.24;99772.94;4965488;28;113572;-90
2022/03/27 01:30:42;;;;;;;12.80;7.23;;;13.10;33.20;;;13.56;29.47;99773.03;4960758;28;121771;-88
2022/03/27 01:33:29;;;;;;;13.40;7.90;;;13.00;33.20;;;13.55;29.33;99773.38;4958328;28;123462;-88
2022/03/27 01:39:38;;;;;;;11.43;7.70;;;13.00;33.50;;;13.40;29.53;99771.69;4959038;28;115084;-90
2022/03/27 01:42:06;;;;;;;10.03;6.87;;;12.90;33.60;;;13.39;29.61;99768.09;4959892;28;122743;-89
2022/03/27 01:44:52;;;;;;;10.97;6.70;;;12.80;33.60;;;13.37;29.91;99772.31;4960150;28;122974;-90
2022/03/27 01:47:18;;;;;;;9.97;6.87;;;12.80;33.80;;;13.34;30.09;99770.97;4952057;28;111813;-90
2022/03/27 01:50:05;;;;;;;10.07;6.97;;;12.80;33.90;;;13.31;29.88;99762.44;4945875;28;114405;-90
2022/03/27 01:52:33;;;;;;;11.30;7.40;;;12.70;33.90;;;13.26;29.89;99761.41;4981627;28;124032;-90
2022/03/27 01:55:01;;;;;;;10.70;7.40;;;12.70;34.00;;;13.24;30.10;99755.34;4961976;28;124380;-88
2022/03/27 01:57:28;;;;;;;10.23;6.93;;;12.70;34.10;;;13.21;29.90;99752.31;4956695;28;112522;-88
2022/03/27 01:59:54;;;;;;;14.67;8.40;;;12.60;34.10;;;13.19;30.07;99760.97;4940674;28;113829;-89
2022/03/27 02:02:24;;;;;;;11.53;7.17;;;12.60;34.20;;;13.17;30.15;99763.22;4938784;28;124736;-89
2022/03/27 02:04:53;;;;;;;15.20;8.27;;;12.60;34.30;;;13.14;30.35;99751.94;4923451;28;122247;-89
2022/03/27 02:07:23;;;;;;;12.90;8.07;;;12.60;34.50;;;13.12;30.51;99757.75;4920914;28;115965;-89
2022/03/27 02:13:30;;;;;;;12.60;6.80;;;12.50;34.70;;;13.00;30.74;99765.75;4940558;28;124214;-89
2022/03/27 02:15:58;;;;;;;15.00;7.73;;;12.40;34.70;;;12.98;30.44;99759.69;4923252;28;122223;-88
2022/03/27 02:18:44;;;;;;;11.57;6.87;;;12.40;34.80;;;12.96;30.67;99750.84;4908885;28;115048;-88
2022/03/27 02:21:31;;;;;;;10.43;7.33;;;12.40;34.90;;;12.93;30.93;99752.28;4939842;28;113768;-87
2022/03/27 02:24:18;;;;;;;11.77;6.97;;;12.30;34.90;;;12.90;30.46;99747.34;4901714;28;123992;-89
2022/03/27 02:26:49;;;;;;;11.73;7.93;;;12.30;35.00;;;12.87;30.74;99758.22;4905344;28;122482;-88
2022/03/27 02:30:15;;;;;;;9.60;7.07;;;12.30;35.10;;;12.84;31.08;99754.09;4931962;28;114364;-87
2022/03/27 02:36:26;;;;;;;12.60;8.33;;;12.20;35.30;;;12.72;31.29;99757.34;4961503;28;124492;-84
2022/03/27 02:39:13;;;;;;;17.93;7.37;;;12.20;35.50;;;12.71;31.37;99758.50;4960132;28;124327;-83
2022/03/27 02:41:59;;;;;;;11.40;6.90;;;12.10;35.50;;;12.71;31.04;99757.69;4973402;28;114860;-82
2022/03/27 02:45:23;;;;;;;13.00;6.70;;;12.10;35.60;;;12.67;31.52;99754.66;4980731;28;114605;-85
2022/03/27 02:47:52;;;;;;;14.50;7.80;;;12.10;35.70;;;12.65;31.50;99758.88;4962637;28;123388;-85
2022/03/27 02:50:39;;;;;;;11.40;7.07;;;12.10;35.80;;;12.63;31.16;99763.88;4960358;28;124334;-86
2022/03/27 02:53:06;;;;;;;10.03;6.47;;;12.00;35.80;;;12.59;31.48;99758.13;4957783;28;114360;-86
2022/03/27 02:55:54;;;;;;;12.97;7.40;;;12.00;35.90;;;12.54;31.55;99761.81;4957804;28;114673;-89
2022/03/27 03:02:09;;;;;;;13.27;8.00;;;11.90;36.10;;;12.40;31.73;99760.94;4960918;28;124817;-89
2022/03/27 03:04:55;;;;;;;13.90;8.50;;;11.80;36.10;;;12.36;32.03;99766.25;4959768;28;115037;-88
2022/03/27 03:07:22;;;;;;;10.87;7.40;;;11.80;36.30;;;12.31;31.83;99763.56;4934625;28;114731;-89
2022/03/27 03:13:31;;;;;;;10.37;7.20;;;11.70;36.40;;;12.23;31.74;99760.66;4960898;28;124813;-89
2022/03/27 03:15:57;;;;;;;12.60;7.73;;;11.70;36.50;;;12.22;32.01;99758.97;4927868;28;112704;-89
2022/03/27 03:18:25;;;;;;;10.83;6.87;;;11.70;36.60;;;12.22;32.11;99759.81;4940881;28;113512;-89
2022/03/27 03:21:16;;;;;;;10.90;7.50;;;11.60;36.60;;;12.23;32.30;99764.25;4957149;28;123023;-89
2022/03/27 03:23:42;;;;;;;12.20;7.07;;;11.60;36.70;;;12.21;32.58;99763.72;4955964;28;124480;-90
2022/03/27 03:26:10;;;;;;;8.00;5.80;;;11.60;36.80;;;12.21;32.47;99763.72;4952004;28;114521;-89
2022/03/27 03:28:37;;;;;;;9.67;6.70;;;11.60;36.90;;;12.22;32.49;99764.53;4957185;28;113768;-89
2022/03/27 03:31:22;;;;;;;12.40;7.60;;;11.70;37.00;;;12.21;32.63;99757.34;4936625;28;123489;-89
2022/03/27 03:34:29;;;;;;;12.27;7.90;;;11.60;37.00;;;12.18;32.63;99758.78;4922024;28;124443;-88
2022/03/27 03:36:58;;;;;;;14.10;8.07;;;11.60;37.10;;;12.15;32.34;99759.38;4928870;28;115097;-89
2022/03/27 03:39:24;;;;;;;17.60;8.80;;;11.50;37.10;;;12.13;32.46;99764.38;4957600;28;113858;-88
2022/03/27 03:41:51;;;;;;;14.50;8.30;;;11.50;37.20;;;12.12;32.53;99754.44;4957544;28;124802;-89
2022/03/27 03:44:20;;;;;;;11.00;7.90;;;11.50;37.30;;;12.11;32.85;99758.31;4954603;28;123466;-88
2022/03/27 03:46:48;;;;;;;17.73;8.90;;;11.50;37.40;;;12.07;32.59;99765.59;4942510;28;113219;-89
2022/03/27 03:49:15;;;;;;;12.73;7.60;;;11.50;37.50;;;12.03;33.08;99761.75;4957812;28;113668;-89
2022/03/27 03:51:41;;;;;;;13.30;7.80;;;11.40;37.50;;;11.97;32.76;99758.22;4939665;28;123033;-88
2022/03/27 03:54:13;;;;;;;12.67;8.57;;;11.40;37.60;;;11.93;32.97;99762.72;4956385;28;123705;-88
2022/03/27 03:56:39;;;;;;;10.07;7.40;;;11.30;37.60;;;11.89;33.10;99768.03;4931563;28;115605;-88
2022/03/27 04:00:04;;;;;;;12.20;7.97;;;11.30;37.70;;;11.88;33.25;99771.09;4937715;28;114643;-88
2022/03/27 04:02:34;;;;;;;11.30;7.60;;;11.30;37.80;;;11.82;33.40;99762.00;4922981;28;123232;-89
2022/03/27 04:05:19;;;;;;;15.70;8.47;;;11.20;37.90;;;11.75;33.50;99767.09;4937482;28;123500;-89
2022/03/27 04:07:47;;;;;;;12.07;7.67;;;11.20;38.00;;;11.71;33.10;99760.47;4920760;28;113918;-88
2022/03/27 04:10:15;;;;;;;12.60;8.10;;;11.20;38.00;;;11.66;33.24;99768.84;4937824;28;114068;-89
2022/03/27 04:12:42;;;;;;;13.60;9.57;;;11.10;38.10;;;11.60;33.98;99767.25;4919880;28;124818;-89
2022/03/27 04:15:10;;;;;;;19.20;10.47;;;11.10;38.50;;;11.49;34.02;99772.91;4922831;28;121994;-88
2022/03/27 04:17:46;;;;;;;18.70;10.43;;;11.00;38.80;;;11.38;34.28;99768.63;4920627;28;115034;-88
2022/03/27 04:23:54;;;;;;;24.07;11.00;;;10.70;39.30;;;11.10;34.68;99766.75;4940409;28;123865;-89
2022/03/27 04:26:42;;;;;;;15.17;9.77;;;10.60;39.40;;;11.08;34.86;99760.66;4939020;28;123207;-89
2022/03/27 04:40:41;;;;;;;11.13;7.77;;;10.40;39.60;;;10.95;35.03;99770.47;4961068;28;124839;-85
2022/03/27 04:43:07;;;;;;;12.07;6.87;;;10.40;39.70;;;11.00;35.05;99768.47;4943413;28;114973;-88
2022/03/27 04:49:16;;;;;;;16.27;7.03;;;10.50;39.90;;;11.04;34.64;99782.53;4960076;28;125254;-88
2022/03/27 04:52:04;;;;;;;12.30;7.53;;;10.50;40.00;;;11.05;34.70;99776.72;4959864;28;122721;-87
2022/03/27 04:54:34;;;;;;;12.60;6.90;;;10.50;40.10;;;11.05;35.28;99776.72;4956365;28;115039;-89
2022/03/27 04:57:03;;;;;;;13.83;7.40;;;10.50;40.10;;;11.06;34.83;99772.00;4942694;28;113843;-89
2022/03/27 04:59:32;;;;;;;10.80;7.10;;;10.50;40.10;;;11.06;34.99;99772.81;4958525;28;123887;-90
2022/03/27 05:02:01;;;;;;;9.97;7.13;;;11.00;40.60;;;11.06;35.04;99777.53;4938877;28;124107;-89
2022/03/27 05:04:48;;;;;;;11.57;7.90;;;10.50;40.20;;;11.08;34.92;99782.78;4914972;28;115180;-89
2022/03/27 05:14:38;;;;;;;14.53;9.13;;;10.40;40.70;;;10.86;35.45;99789.63;4978169;28;124827;-89
2022/03/27 05:17:24;;;;;;;12.53;8.20;;;10.30;40.60;;;10.85;35.87;99796.25;4978803;28;115027;-84
2022/03/27 05:23:34;;;;;;;17.57;9.20;;;10.30;40.90;;;10.75;36.08;99793.59;4978708;28;125139;-89
2022/03/27 05:29:43;;;;;;;13.27;8.30;;;10.20;41.20;;;10.69;36.00;99791.97;4979029;28;115339;-89
2022/03/27 05:35:53;;;;;;;11.73;8.33;;;10.10;41.30;;;10.66;36.31;99784.25;4979444;28;125163;-88
2022/03/27 05:42:01;;;;;;;12.80;8.30;;;10.10;41.40;;;10.66;36.30;99798.91;4979625;28;115209;-87
2022/03/27 05:45:27;;;;;;;14.67;8.43;;;10.10;41.40;;;10.69;36.39;99801.06;4979512;28;113527;-88
2022/03/27 05:55:18;;;;;;;14.53;9.40;;;10.10;43.20;;;10.67;37.89;99803.31;4979080;28;116146;-89
2022/03/27 06:01:27;;;;;;;18.43;9.73;;;10.10;44.00;;;10.72;37.56;99816.25;4972499;28;124494;-89
2022/03/27 06:07:48;;;;;;;21.20;11.20;;;10.10;43.50;;;10.63;37.98;99812.47;4970519;28;115290;-89
2022/03/27 06:11:11;;;;;;;15.17;9.50;;;10.10;43.50;;;10.59;37.73;99815.81;4941263;28;114825;-90
2022/03/27 06:17:20;;;;;;;15.53;9.10;;;10.10;43.20;;;10.62;37.40;99814.41;4958887;28;124856;-89
2022/03/27 06:20:08;;;;;;;14.80;9.60;;;10.00;43.10;;;10.69;37.42;99822.38;4961468;28;114956;-91
2022/03/27 06:26:16;;;;;;;15.33;10.20;;;10.20;43.10;;;10.77;37.24;99813.47;4975462;28;124644;-81
2022/03/27 06:32:26;;;;;;;16.80;9.57;;;10.20;43.30;;;10.83;37.33;99812.31;4979949;28;115194;-78
2022/03/27 06:38:35;;;;;;;13.00;8.47;;;10.30;43.20;;;11.18;37.15;99816.69;4981873;28;125091;-88
2022/03/27 06:41:41;;;;;;;13.83;9.17;;;10.40;43.40;;;11.66;36.58;99811.22;4978146;28;124312;-90
2022/03/27 06:44:08;;;;;;;15.53;9.37;;;10.70;43.50;;;11.78;36.10;99816.31;4958357;28;113970;-90
2022/03/27 06:50:19;;;;;;;12.63;8.20;;;11.00;43.00;;;12.14;35.78;99813.13;4974199;28;124118;-90
2022/03/27 06:56:27;;;;;;;16.27;9.87;;;11.40;42.60;;;12.17;35.63;99809.78;4963789;28;115809;-90
2022/03/27 06:58:56;;;;;;;17.90;9.57;;;11.40;42.20;;;12.17;35.85;99812.53;4959728;28;112819;-89
2022/03/27 07:04:49;;;;;;;11.53;7.67;;;11.50;42.10;;;12.23;35.79;99816.88;4945706;28;124043;-89
2022/03/27 07:07:36;;;;;;;17.83;9.30;;;11.60;42.10;;;12.26;35.47;99815.47;4967294;28;113724;-88
2022/03/27 07:10:03;;;;;;;16.07;9.40;;;11.60;42.10;;;12.27;35.58;99812.38;4944706;28;113469;-89
2022/03/27 07:12:31;;;;;;;13.97;8.67;;;11.60;42.10;;;12.30;35.89;99809.00;4944056;28;124365;-90
2022/03/27 07:15:18;;;;;;;15.60;8.83;;;11.60;42.00;;;12.31;35.38;99810.66;4945829;28;124650;-89
2022/03/27 07:21:46;;;;;;;13.30;8.53;;;11.70;42.00;;;12.48;35.69;99814.88;4971142;28;114550;-88
2022/03/27 07:24:50;;;;;;;13.30;7.60;;;11.80;42.00;;;12.57;35.43;99816.66;4968894;28;123925;-89
2022/03/27 07:27:17;;;;;;;17.20;9.90;;;11.90;42.10;;;12.65;35.57;99817.91;4954084;28;121560;-88
2022/03/27 07:30:23;;;;;;;13.40;10.50;;;11.90;42.30;;;12.71;35.62;99821.44;4950833;28;112009;-89
2022/03/27 07:32:52;;;;;;;22.90;12.87;;;12.00;42.60;;;12.71;36.11;99827.81;4951272;28;113746;-88
2022/03/27 07:35:20;;;;;;;18.80;10.90;;;12.00;42.80;;;12.72;36.04;99826.69;4971179;28;123738;-88
2022/03/27 07:38:08;;;;;;;25.83;12.13;;;12.00;42.70;;;12.77;36.27;99829.38;4955688;28;122301;-89
2022/03/27 07:40:38;;;;;;;23.77;14.10;;;12.10;43.20;;;12.83;36.24;99835.66;4970279;28;113990;-89
2022/03/27 07:43:06;;;;;;;23.30;13.67;;;12.10;43.50;;;12.85;36.14;99832.59;4968329;28;113451;-89
2022/03/27 07:45:52;;;;;;;22.43;13.10;;;12.10;43.30;;;12.90;36.50;99829.75;4952097;28;123651;-89
2022/03/27 07:48:20;;;;;;;19.97;12.90;;;12.20;43.50;;;12.93;36.08;99829.13;4948693;28;124095;-89
2022/03/27 07:51:24;;;;;;;19.77;11.40;;;12.20;43.20;;;12.97;36.04;99839.31;4965572;28;114770;-90
2022/03/27 07:54:09;;;;;;;20.33;11.80;;;12.30;43.20;;;12.97;36.16;99835.72;4947834;28;114025;-89
2022/03/27 07:56:57;;;;;;;23.43;13.50;;;12.30;43.10;;;12.95;36.25;99833.25;4955077;28;123766;-89
2022/03/27 07:59:25;;;;;;;22.67;13.20;;;12.30;43.30;;;12.96;36.30;99842.41;4947536;28;122978;-89
2022/03/27 08:02:29;;;;;;;20.30;12.90;;;12.30;43.20;;;12.98;35.92;99837.38;4953829;28;114992;-91
2022/03/27 08:04:58;;;;;;;17.40;11.93;;;12.30;43.10;;;13.05;35.98;99837.78;4954890;28;113173;-90
2022/03/27 08:08:02;;;;;;;23.93;11.50;;;12.40;43.10;;;13.17;35.96;99831.78;4951545;28;123617;-89
2022/03/27 08:10:50;;;;;;;19.03;11.63;;;12.50;43.00;;;13.25;35.78;99837.44;4967227;28;123330;-88
2022/03/27 08:14:12;;;;;;;16.07;10.00;;;12.50;43.10;;;13.36;35.84;99834.53;4966544;28;114039;-90
2022/03/27 08:16:40;;;;;;;17.33;11.60;;;12.60;43.00;;;13.44;35.96;99833.81;4946863;28;113415;-88
2022/03/27 08:20:03;;;;;;;15.40;11.10;;;12.70;43.20;;;13.51;35.66;99833.41;4947886;28;122134;-89
2022/03/27 08:22:50;;;;;;;16.67;11.17;;;12.80;43.20;;;13.59;35.58;99830.72;4950525;28;122387;-90
2022/03/27 08:29:02;;;;;;;20.27;12.43;;;13.00;43.20;;;13.75;35.59;99836.00;4967401;28;114126;-89
2022/03/27 08:31:32;;;;;;;16.93;11.83;;;13.00;43.10;;;13.80;35.41;99833.13;4947175;28;124118;-88
2022/03/27 08:34:23;;;;;;;22.43;12.00;;;13.10;43.00;;;13.88;35.70;99822.09;4963822;28;123410;-88
2022/03/27 08:37:13;;;;;;;24.27;12.57;;;13.20;43.10;;;13.96;35.60;99823.34;4937051;28;113845;-88
2022/03/27 08:39:44;;;;;;;21.13;13.07;;;13.20;43.10;;;14.00;35.50;99823.56;4966829;28;113573;-89
2022/03/27 08:42:16;;;;;;;16.90;10.73;;;13.30;43.00;;;14.05;35.48;99827.06;4951694;28;123245;-89
2022/03/27 08:44:44;;;;;;;18.07;12.60;;;13.30;42.90;;;14.13;35.39;99822.69;4965961;28;123419;-88
2022/03/27 08:47:27;;;;;;;21.90;12.40;;;13.40;43.00;;;14.20;35.28;99823.09;4943129;28;114733;-88
2022/03/27 08:50:32;;;;;;;15.43;10.67;;;13.50;42.90;;;14.25;35.22;99827.72;4936936;28;115126;-89
2022/03/27 08:53:53;;;;;;;17.07;10.47;;;13.50;42.80;;;14.35;35.23;99828.34;4941792;28;124141;-88
2022/03/27 09:00:04;;;;;;;13.83;9.60;;;13.70;42.70;;;14.50;34.97;99827.16;4950257;28;114845;-90
2022/03/27 09:02:31;;;;;;;11.60;8.17;;;13.80;42.60;;;14.62;34.96;99817.47;4954539;28;113150;-88
2022/03/27 09:05:02;;;;;;;13.77;8.83;;;13.90;42.60;;;14.74;34.70;99826.88;4925439;28;123045;-88
2022/03/27 09:07:32;;;;;;;12.73;8.40;;;14.00;42.50;;;14.83;34.57;99813.06;4960888;28;123422;-90
2022/03/27 09:10:21;;;;;;;14.30;9.43;;;14.10;42.40;;;14.93;34.50;99812.78;4937396;28;114398;-89
2022/03/27 09:13:27;;;;;;;13.23;8.13;;;14.20;42.30;;;15.01;34.45;99820.38;4951926;28;113118;-89
2022/03/27 09:16:03;;;;;;;11.60;7.80;;;14.30;42.30;;;15.10;34.35;99823.25;4934184;28;123984;-88
2022/03/27 09:22:24;;;;;;;13.23;9.00;;;14.40;42.10;;;15.22;34.19;99819.88;4952396;28;114149;-89
2022/03/27 09:25:28;;;;;;;13.80;10.17;;;14.50;42.10;;;15.29;34.30;99820.25;4935963;28;113019;-89
2022/03/27 09:27:57;;;;;;;17.40;10.40;;;14.50;42.00;;;15.36;34.06;99812.25;4939824;28;122513;-90
2022/03/27 09:30:36;;;;;;;14.47;9.90;;;14.60;42.00;;;15.45;34.08;99820.66;4922597;28;123359;-90
2022/03/27 09:33:04;;;;;;;13.90;9.53;;;14.70;41.80;;;15.50;33.97;99816.91;4953711;28;114411;-90
2022/03/27 09:35:35;;;;;;;14.27;9.50;;;14.70;41.80;;;15.56;33.98;99815.63;4918713;28;112961;-90
2022/03/27 09:38:19;;;;;;;12.90;9.43;;;14.80;41.70;;;15.61;33.80;99815.50;4957387;28;123976;-91
2022/03/27 09:41:32;;;;;;;15.73;9.10;;;14.90;41.60;;;15.65;33.72;99806.16;4955882;28;121934;-91
2022/03/27 09:44:03;;;;;;;13.83;9.00;;;15.00;41.60;;;15.75;33.83;99801.47;4942766;28;114888;-90
2022/03/27 09:47:01;;;;;;;16.80;10.63;;;15.00;41.40;;;15.80;33.61;99802.16;4917050;28;114169;-91
2022/03/27 09:49:34;;;;;;;15.27;10.23;;;15.10;41.40;;;15.84;33.23;99799.53;4934942;28;122201;-89
2022/03/27 09:52:24;;;;;;;12.70;9.23;;;15.10;41.00;;;15.88;33.35;99798.56;4931982;28;123217;-89
2022/03/27 09:54:58;;;;;;;15.53;7.67;;;15.20;41.10;;;15.98;33.17;99791.03;4936510;28;113925;-89
2022/03/27 09:58:06;;;;;;;21.93;11.00;;;15.30;41.80;;;16.05;33.30;99800.56;4955852;28;114516;-91
2022/03/27 10:00:32;;;;;;;14.60;9.80;;;15.40;41.10;;;16.12;33.27;99786.16;4953210;28;123869;-91
2022/03/27 10:03:11;;;;;;;16.43;10.30;;;15.40;40.90;;;16.19;32.79;99785.69;4950588;28;122764;-90
2022/03/27 10:05:38;;;;;;;14.97;9.20;;;15.50;40.90;;;16.25;32.97;99793.53;4947079;28;113684;-91
2022/03/27 10:08:07;;;;;;;13.83;9.63;;;15.50;40.70;;;16.31;32.92;99781.09;4954720;28;113306;-90
2022/03/27 10:10:52;;;;;;;16.23;10.20;;;15.60;40.60;;;16.39;32.84;99784.22;4931187;28;124490;-91
2022/03/27 10:13:28;;;;;;;19.73;12.23;;;15.70;40.60;;;16.44;32.71;99781.25;4934679;28;123582;-91
2022/03/27 10:15:59;;;;;;;19.90;11.73;;;15.70;40.60;;;16.47;32.72;99781.44;4934542;28;114384;-90
2022/03/27 10:18:45;;;;;;;16.30;9.40;;;15.80;40.60;;;16.53;32.92;99771.75;4951182;28;114463;-91
2022/03/27 10:21:15;;;;;;;12.27;8.67;;;15.90;40.60;;;16.62;32.51;99777.31;4958143;28;123438;-91
2022/03/27 10:24:22;;;;;;;23.03;11.90;;;15.90;40.60;;;16.75;32.61;99769.94;4961303;28;123185;-90
2022/03/27 10:27:45;;;;;;;21.73;10.70;;;16.00;40.40;;;16.84;32.19;99779.16;4945357;28;113638;-92
2022/03/27 10:30:15;;;;;;;19.43;10.10;;;16.20;40.30;;;16.94;32.12;99761.25;4959101;28;114341;-92
2022/03/27 10:32:45;;;;;;;16.90;10.60;;;16.20;39.90;;;17.02;31.95;99762.38;4952742;28;123712;-91
2022/03/27 10:36:10;;;;;;;16.67;11.33;;;16.30;39.70;;;17.07;31.34;99762.22;4958648;28;122924;-91
2022/03/27 10:39:00;;;;;;;16.63;9.90;;;16.40;39.20;;;17.16;31.68;99758.22;4947818;28;114303;-91
2022/03/27 10:41:33;;;;;;;14.10;9.77;;;16.50;39.30;;;17.25;31.42;99757.38;4930711;28;114980;-90
2022/03/27 10:44:26;;;;;;;14.27;10.70;;;16.60;39.20;;;17.35;31.46;99755.03;4954967;28;123908;-92
2022/03/27 10:47:23;;;;;;;16.03;10.80;;;16.70;39.30;;;17.46;31.42;99749.91;4934934;28;123265;-88
2022/03/27 10:50:09;;;;;;;17.30;10.60;;;16.80;39.20;;;17.56;31.27;99745.91;4939460;28;113775;-91
2022/03/27 10:52:57;;;;;;;20.03;11.17;;;16.90;39.20;;;17.64;31.25;99740.28;4941060;28;112553;-92
2022/03/27 10:55:42;;;;;;;19.73;9.83;;;17.00;39.00;;;17.75;31.33;99742.69;4952372;28;124343;-89
2022/03/27 10:58:29;;;;;;;16.20;10.83;;;17.10;39.20;;;17.88;31.28;99742.47;4936754;28;123707;-91
2022/03/27 11:00:59;;;;;;;24.03;12.27;;;17.20;39.20;;;17.97;31.03;99741.59;4939359;28;113790;-91
2022/03/27 11:03:45;;;;;;;21.40;12.00;;;17.30;39.00;;;18.08;30.95;99737.25;4952762;28;114249;-91
2022/03/27 11:06:51;;;;;;;18.20;10.43;;;17.40;39.00;;;18.18;30.68;99738.84;4936444;28;122540;-90
2022/03/27 11:09:38;;;;;;;14.70;10.57;;;17.50;38.70;;;18.28;30.60;99730.03;4907168;28;124353;-90
2022/03/27 11:12:25;;;;;;;16.20;10.50;;;17.60;39.20;;;18.40;30.64;99726.47;4949791;28;114437;-90
2022/03/27 11:15:45;;;;;;;16.07;10.20;;;17.70;38.60;;;18.55;30.54;99718.28;4936477;28;113298;-90
2022/03/27 11:18:12;;;;;;;17.57;9.87;;;17.90;38.70;;;18.73;30.33;99712.53;4934653;28;123746;-90
2022/03/27 11:20:47;;;;;;;15.03;9.77;;;18.00;38.60;;;18.90;30.23;99712.34;4950460;28;123719;-91
2022/03/27 11:23:26;;;;;;;12.80;8.63;;;18.10;38.50;;;19.07;29.82;99713.34;4918108;28;114335;-91
2022/03/27 11:25:53;;;;;;;12.50;9.40;;;18.30;38.40;;;19.23;29.79;99703.09;4935487;28;114398;-91
2022/03/27 11:28:21;;;;;;;18.77;10.73;;;18.50;38.90;;;19.36;29.53;99699.13;4949139;28;124232;-88
2022/03/27 11:30:50;;;;;;;14.70;9.37;;;18.60;37.90;;;19.48;29.45;99691.88;4951377;28;123890;-90
2022/03/27 11:33:21;;;;;;;12.20;8.07;;;18.70;37.70;;;19.60;29.25;99689.91;4949583;28;114675;-89
2022/03/27 11:36:07;;;;;;;14.17;8.87;;;18.90;37.60;;;19.75;28.94;99687.59;4935105;28;114262;-88
2022/03/27 11:38:35;;;;;;;16.60;9.63;;;19.00;37.20;;;19.84;28.09;99683.47;4943740;28;123976;-90
2022/03/27 11:41:28;;;;;;;25.93;10.27;;;19.10;36.30;;;19.94;27.41;99684.19;4937729;28;122705;-91
2022/03/27 11:43:57;;;;;;;19.40;11.20;;;19.20;34.90;;;20.06;27.16;99684.16;4929237;28;114321;-90
2022/03/27 11:46:27;;;;;;;14.53;8.17;;;19.30;34.70;;;20.21;27.09;99676.97;4948604;28;114288;-90
2022/03/27 11:48:58;;;;;;;17.27;8.80;;;19.50;34.80;;;20.37;26.63;99679.84;4931791;28;124038;-93
2022/03/27 11:51:25;;;;;;;15.23;9.53;;;19.60;34.40;;;20.52;26.91;99674.28;4933783;28;123821;-89
2022/03/27 11:53:54;;;;;;;15.50;8.80;;;19.70;34.20;;;20.67;26.22;99664.28;4932478;28;114019;-91
2022/03/27 11:56:21;;;;;;;9.43;6.47;;;19.90;34.00;;;20.81;26.30;99666.66;4931787;28;114183;-92
2022/03/27 11:59:28;;;;;;;6.77;6.07;;;20.00;34.20;;;20.96;26.09;99663.06;4950632;28;123476;-91
2022/03/27 12:02:00;;;;;;;10.30;8.03;;;20.20;33.70;;;21.10;25.65;99668.25;4930957;28;123896;-92
2022/03/27 12:04:28;;;;;;;9.80;6.73;;;20.30;33.50;;;21.25;25.48;99663.81;4934521;28;113000;-91
2022/03/27 12:06:56;;;;;;;10.30;7.07;;;20.50;33.00;;;21.44;25.06;99662.25;4952352;28;113886;-90
2022/03/27 12:09:32;;;;;;;13.63;7.83;;;20.60;33.00;;;21.64;24.65;99661.16;4950847;28;124473;-90
2022/03/27 12:12:10;;;;;;;16.83;9.67;;;20.80;32.40;;;21.75;23.72;99652.97;4914432;28;123035;-90
2022/03/27 12:15:08;;;;;;;12.77;7.60;;;20.90;30.70;;;21.83;23.52;99646.31;4946460;28;114217;-91
2022/03/27 12:17:45;;;;;;;12.07;7.70;;;21.10;30.60;;;21.97;23.63;99641.00;4941400;28;113135;-90
2022/03/27 12:20:14;;;;;;;16.13;9.00;;;21.20;30.60;;;22.13;23.05;99643.75;4934366;28;123351;-91
2022/03/27 12:22:51;;;;;;;20.80;7.80;;;21.30;30.00;;;22.26;23.28;99624.75;4932085;28;124364;-92
2022/03/27 12:25:25;;;;;;;13.03;8.00;;;21.50;29.90;;;22.38;22.96;99627.44;4947343;28;115137;-91
2022/03/27 12:30:53;;;;;;;11.17;7.70;;;21.80;29.20;;;22.65;22.36;99616.28;4950805;28;124571;-91
2022/03/27 12:33:23;;;;;;;12.63;8.03;;;21.90;29.20;;;22.77;22.28;99616.09;4948004;28;123936;-89
2022/03/27 12:36:06;;;;;;;9.20;6.27;;;22.10;29.10;;;22.98;22.19;99620.50;4946620;28;114309;-92
2022/03/27 12:38:37;;;;;;;9.27;6.50;;;22.20;29.20;;;23.18;21.88;99613.59;4950680;28;113451;-91
2022/03/27 12:41:06;;;;;;;10.63;7.43;;;22.40;28.90;;;23.32;21.39;99616.66;4932659;28;123029;-90
2022/03/27 12:43:33;;;;;;;17.43;7.90;;;22.50;28.30;;;23.37;20.54;99621.16;4933503;28;122981;-89
2022/03/27 12:46:17;;;;;;;15.20;7.70;;;22.60;27.50;;;23.42;21.11;99612.34;4947654;28;113284;-89
2022/03/27 12:49:05;;;;;;;13.00;7.40;;;22.70;27.60;;;23.57;20.64;99611.41;4946413;28;115386;-90
2022/03/27 12:51:32;;;;;;;8.23;5.40;;;22.80;27.20;;;23.72;21.23;99620.09;4945153;28;123108;-89
2022/03/27 12:54:08;;;;;;;7.70;5.10;;;22.90;28.00;;;23.92;21.28;99612.31;4945534;28;124638;-89
2022/03/27 12:56:55;;;;;;;8.40;5.40;;;23.10;28.40;;;24.12;21.26;99610.94;4948828;28;114402;-91
2022/03/27 12:59:23;;;;;;;11.00;7.00;;;23.30;28.20;;;24.31;20.31;99603.50;4951253;28;114264;-93
2022/03/27 13:01:50;;;;;;;11.87;6.20;;;23.40;27.50;;;24.38;20.11;99612.88;4932800;28;122197;-90
2022/03/27 13:04:17;;;;;;;13.13;7.33;;;23.60;27.40;;;24.38;19.32;99601.59;4947110;28;123853;-90
2022/03/27 13:06:50;;;;;;;11.83;6.53;;;23.70;26.30;;;24.43;19.31;99589.13;4946633;28;112185;-92
2022/03/27 13:09:22;;;;;;;15.77;7.53;;;23.70;26.30;;;24.51;19.37;99593.69;4930486;28;113148;-90
2022/03/27 13:11:49;;;;;;;13.40;7.80;;;23.80;25.90;;;24.62;19.27;99588.97;4930028;28;123620;-91
2022/03/27 13:14:17;;;;;;;10.47;6.00;;;23.90;26.30;;;24.78;19.43;99588.72;4929979;28;124158;-93
2022/03/27 13:16:48;;;;;;;11.83;7.17;;;24.00;26.60;;;24.91;18.92;99592.06;4947403;28;115333;-90